createdAt,value
2023-01-22T00:00:04.661Z,2.27
2023-01-22T00:02:39.298Z,2.27
2023-01-22T00:05:06.468Z,2.27
2023-01-22T00:07:33.219Z,2.26
2023-01-22T00:10:02.570Z,2.27
2023-01-22T00:12:29.343Z,2.26
2023-01-22T00:14:56.139Z,2.27
2023-01-22T00:17:23.099Z,2.27
2023-01-22T00:19:49.812Z,2.27
2023-01-22T00:22:16.645Z,2.29
2023-01-22T00:24:43.714Z,2.27
2023-01-22T00:27:10.664Z,2.28
2023-01-22T00:29:37.423Z,2.28
2023-01-22T00:32:04.399Z,2.27
2023-01-22T00:34:31.205Z,2.28
2023-01-22T00:36:58.112Z,2.28
2023-01-22T00:39:24.951Z,2.29
2023-01-22T00:41:52.080Z,2.28
2023-01-22T00:44:18.867Z,2.28
2023-01-22T00:46:45.722Z,2.28
2023-01-22T00:49:12.612Z,2.28
2023-01-22T00:51:39.760Z,2.28
2023-01-22T00:54:06.901Z,2.28
2023-01-22T00:56:33.899Z,2.27
2023-01-22T00:59:01.196Z,2.28
2023-01-22T01:01:28.008Z,2.28
2023-01-22T01:03:54.744Z,2.28
2023-01-22T01:06:21.657Z,2.27
2023-01-22T01:08:48.705Z,2.28
2023-01-22T01:11:16.490Z,2.29
2023-01-22T01:13:43.375Z,2.29
2023-01-22T01:16:17.625Z,2.29
2023-01-22T01:18:45.103Z,2.29
2023-01-22T01:21:12.299Z,2.30
2023-01-22T01:23:39.148Z,2.30
2023-01-22T01:26:06.723Z,2.29
2023-01-22T01:28:34.814Z,2.29
2023-01-22T01:31:02.319Z,2.29
2023-01-22T01:33:29.184Z,2.28
2023-01-22T01:36:00.140Z,2.29
2023-01-22T01:38:29.519Z,2.28
2023-01-22T01:40:56.247Z,2.29
2023-01-22T01:43:23.024Z,2.28
2023-01-22T01:45:49.870Z,2.29
2023-01-22T01:48:23.496Z,2.29
2023-01-22T01:50:55.746Z,2.29
2023-01-22T01:53:22.540Z,2.30
2023-01-22T01:55:49.368Z,2.30
2023-01-22T01:58:21.622Z,2.31
2023-01-22T02:00:50.390Z,2.30
2023-01-22T02:03:17.340Z,2.30
2023-01-22T02:05:44.195Z,2.31
2023-01-22T02:08:11.678Z,2.31
2023-01-22T02:10:38.590Z,2.31
2023-01-22T02:13:07.802Z,2.32
2023-01-22T02:15:34.767Z,2.32
2023-01-22T02:18:01.509Z,2.32
2023-01-22T02:20:28.273Z,2.32
2023-01-22T02:22:55.062Z,2.31
2023-01-22T02:25:22.048Z,2.31
2023-01-22T02:27:48.889Z,2.33
2023-01-22T02:30:16.655Z,2.33
2023-01-22T02:32:43.680Z,2.32
2023-01-22T02:35:16.966Z,2.33
2023-01-22T02:37:46.474Z,2.34
2023-01-22T02:40:13.450Z,2.34
2023-01-22T02:42:42.194Z,2.33
2023-01-22T02:45:09.226Z,2.34
2023-01-22T02:47:36.565Z,2.33
2023-01-22T02:50:05.438Z,2.35
2023-01-22T02:52:32.195Z,2.34
2023-01-22T02:54:58.948Z,2.34
2023-01-22T02:57:26.294Z,2.34
2023-01-22T02:59:53.057Z,2.35
2023-01-22T03:02:20.111Z,2.34
2023-01-22T03:04:50.314Z,2.35
2023-01-22T03:07:17.551Z,2.35
2023-01-22T03:09:45.826Z,2.35
2023-01-22T03:12:12.787Z,2.35
2023-01-22T03:14:59.038Z,2.34
2023-01-22T03:17:44.567Z,2.36
2023-01-22T03:20:30.079Z,2.35
2023-01-22T03:22:56.970Z,2.35
2023-01-22T03:25:23.742Z,2.35
2023-01-22T03:28:09.282Z,2.35
2023-01-22T03:30:38.727Z,2.37
2023-01-22T03:33:07.489Z,2.35
2023-01-22T03:35:34.189Z,2.36
2023-01-22T03:38:12.206Z,2.37
2023-01-22T03:40:39.804Z,2.37
2023-01-22T03:43:06.937Z,2.37
2023-01-22T03:45:34.317Z,2.38
2023-01-22T03:48:02.426Z,2.38
2023-01-22T03:50:34.934Z,2.37
2023-01-22T03:53:04.223Z,2.38
2023-01-22T03:55:32.197Z,2.38
2023-01-22T03:57:59.037Z,2.40
2023-01-22T04:00:25.883Z,2.38
2023-01-22T04:02:53.861Z,2.39
2023-01-22T04:05:25.205Z,2.39
2023-01-22T04:07:52.107Z,2.39
2023-01-22T04:10:23.534Z,2.39
2023-01-22T04:12:50.331Z,2.40
2023-01-22T04:15:20.148Z,2.41
2023-01-22T04:17:47.948Z,2.41
2023-01-22T04:20:31.044Z,2.40
2023-01-22T04:23:06.151Z,2.41
2023-01-22T04:25:34.336Z,2.41
2023-01-22T04:28:01.135Z,2.41
2023-01-22T04:30:28.048Z,2.42
2023-01-22T04:33:04.763Z,2.41
2023-01-22T04:35:43.372Z,2.40
2023-01-22T04:38:12.037Z,2.42
2023-01-22T04:40:38.811Z,2.40
2023-01-22T04:43:06.380Z,2.40
2023-01-22T04:45:33.263Z,2.40
2023-01-22T04:48:00.193Z,2.40
2023-01-22T04:50:28.003Z,2.41
2023-01-22T04:52:55.521Z,2.41
2023-01-22T04:55:22.514Z,2.41
2023-01-22T04:58:15.399Z,2.41
2023-01-22T05:00:42.272Z,2.41
2023-01-22T05:03:10.314Z,2.41
2023-01-22T05:05:37.028Z,2.42
2023-01-22T05:08:03.971Z,2.41
2023-01-22T05:10:33.050Z,2.41
2023-01-22T05:13:02.444Z,2.42
2023-01-22T05:15:29.544Z,2.42
2023-01-22T05:18:00.296Z,2.41
2023-01-22T05:20:27.700Z,2.41
2023-01-22T05:22:54.542Z,2.41
2023-01-22T05:25:24.384Z,2.42
2023-01-22T05:27:51.143Z,2.42
2023-01-22T05:30:51.006Z,2.42
2023-01-22T05:33:35.488Z,2.42
2023-01-22T05:36:03.535Z,2.42
2023-01-22T05:38:31.343Z,2.42
2023-01-22T05:40:58.384Z,2.42
2023-01-22T05:43:26.950Z,2.41
2023-01-22T05:46:02.788Z,2.42
2023-01-22T05:48:44.457Z,2.42
2023-01-22T05:51:14.965Z,2.42
2023-01-22T05:53:42.334Z,2.43
2023-01-22T05:56:09.788Z,2.42
2023-01-22T05:58:38.738Z,2.43
2023-01-22T06:01:06.372Z,2.42
2023-01-22T06:03:40.100Z,2.42
2023-01-22T06:06:08.156Z,2.43
2023-01-22T06:08:35.132Z,2.42
2023-01-22T06:11:08.900Z,2.42
2023-01-22T06:13:35.740Z,2.41
2023-01-22T06:16:10.861Z,2.42
2023-01-22T06:18:55.973Z,2.42
2023-01-22T06:21:26.106Z,2.42
2023-01-22T06:23:54.098Z,2.42
2023-01-22T06:26:21.062Z,2.42
2023-01-22T06:28:47.919Z,2.42
2023-01-22T06:31:14.885Z,2.42
2023-01-22T06:33:48.201Z,2.43
2023-01-22T06:36:18.401Z,2.43
2023-01-22T06:38:45.466Z,2.42
2023-01-22T06:41:18.867Z,2.44
2023-01-22T06:43:48.049Z,2.43
2023-01-22T06:46:15.178Z,2.43
2023-01-22T06:49:01.736Z,2.43
2023-01-22T06:51:29.529Z,2.43
2023-01-22T06:53:56.328Z,2.43
2023-01-22T06:56:23.625Z,2.44
2023-01-22T06:58:54.117Z,2.43
2023-01-22T07:01:21.075Z,2.43
2023-01-22T07:03:47.909Z,2.43
2023-01-22T07:06:18.009Z,2.44
2023-01-22T07:08:44.953Z,2.44
2023-01-22T07:11:12.021Z,2.44
2023-01-22T07:13:38.760Z,2.43
2023-01-22T07:16:06.021Z,2.44
2023-01-22T07:18:32.860Z,2.44
2023-01-22T07:21:03.195Z,2.44
2023-01-22T07:23:30.267Z,2.44
2023-01-22T07:25:57.207Z,2.45
2023-01-22T07:28:24.036Z,2.45
2023-01-22T07:30:51.022Z,2.45
2023-01-22T07:33:22.618Z,2.46
2023-01-22T07:36:18.241Z,2.47
2023-01-22T07:38:46.822Z,2.47
2023-01-22T07:41:25.595Z,2.46
2023-01-22T07:43:53.700Z,2.47
2023-01-22T07:46:20.593Z,2.48
2023-01-22T07:48:47.403Z,2.47
2023-01-22T07:51:14.296Z,2.46
2023-01-22T07:53:42.982Z,2.47
2023-01-22T07:56:09.784Z,2.48
2023-01-22T07:58:36.497Z,2.49
2023-01-22T08:01:07.261Z,2.50
2023-01-22T08:03:34.207Z,2.50
2023-01-22T08:06:01.062Z,2.50
2023-01-22T08:08:27.914Z,2.52
2023-01-22T08:10:58.041Z,2.51
2023-01-22T08:13:24.888Z,2.53
2023-01-22T08:15:51.765Z,2.53
2023-01-22T08:18:22.822Z,2.55
2023-01-22T08:20:49.884Z,2.56
2023-01-22T08:23:16.679Z,2.57
2023-01-22T08:25:43.483Z,2.57
2023-01-22T08:28:10.352Z,2.58
2023-01-22T08:30:46.081Z,2.57
2023-01-22T08:33:16.040Z,2.58
2023-01-22T08:35:42.988Z,2.58
2023-01-22T08:38:09.894Z,2.57
2023-01-22T08:40:38.091Z,2.59
2023-01-22T08:43:05.017Z,2.59
2023-01-22T08:45:33.333Z,2.61
2023-01-22T08:48:00.482Z,2.61
2023-01-22T08:50:27.975Z,2.64
2023-01-22T08:52:56.171Z,2.62
2023-01-22T08:55:23.083Z,2.63
2023-01-22T08:57:56.365Z,2.62
2023-01-22T09:00:23.280Z,2.63
2023-01-22T09:02:50.090Z,2.63
2023-01-22T09:05:16.892Z,2.64
2023-01-22T09:07:43.704Z,2.64
2023-01-22T09:10:13.037Z,2.64
2023-01-22T09:12:40.247Z,2.65
2023-01-22T09:15:07.545Z,2.66
2023-01-22T09:17:34.372Z,2.66
2023-01-22T09:20:06.641Z,2.67
2023-01-22T09:22:33.500Z,2.66
2023-01-22T09:25:00.378Z,2.67
2023-01-22T09:27:27.244Z,2.68
2023-01-22T09:29:54.118Z,2.68
2023-01-22T09:32:20.986Z,2.68
2023-01-22T09:34:47.759Z,2.68
2023-01-22T09:37:15.542Z,2.69
2023-01-22T09:39:42.326Z,2.70
2023-01-22T09:42:10.608Z,2.71
2023-01-22T09:44:38.427Z,2.70
2023-01-22T09:47:07.152Z,2.72
2023-01-22T09:49:49.534Z,2.72
2023-01-22T09:52:16.590Z,2.73
2023-01-22T09:55:12.278Z,2.73
2023-01-22T10:01:49.646Z,2.75
2023-01-22T10:04:27.460Z,2.74
2023-01-22T10:06:55.357Z,2.74
2023-01-22T10:09:40.775Z,2.75
2023-01-22T10:12:13.946Z,2.74
2023-01-22T10:14:41.339Z,2.76
2023-01-22T10:17:19.259Z,2.77
2023-01-22T10:19:47.095Z,2.76
2023-01-22T10:22:15.969Z,2.77
2023-01-22T10:24:45.159Z,2.77
2023-01-22T10:27:12.963Z,2.78
2023-01-22T10:29:39.887Z,2.78
2023-01-22T10:32:17.249Z,2.79
2023-01-22T10:34:44.139Z,2.80
2023-01-22T10:37:15.266Z,2.80
2023-01-22T10:39:42.868Z,2.81
2023-01-22T10:42:19.502Z,2.82
2023-01-22T10:44:46.584Z,2.82
2023-01-22T10:47:21.016Z,2.84
2023-01-22T10:49:48.464Z,2.84
2023-01-22T10:52:19.219Z,2.85
2023-01-22T10:54:47.159Z,2.86
2023-01-22T10:57:21.457Z,2.85
2023-01-22T10:59:52.437Z,2.88
2023-01-22T11:02:22.060Z,2.90
2023-01-22T11:04:48.945Z,2.91
2023-01-22T11:07:26.913Z,2.93
2023-01-22T11:10:13.017Z,2.93
2023-01-22T11:12:41.585Z,2.95
2023-01-22T11:15:17.497Z,2.95
2023-01-22T11:17:45.469Z,2.97
2023-01-22T11:20:23.219Z,2.97
2023-01-22T11:23:13.692Z,2.98
2023-01-22T11:25:54.082Z,3.00
2023-01-22T11:28:28.445Z,3.02
2023-01-22T11:31:01.732Z,3.03
2023-01-22T11:33:50.207Z,3.03
2023-01-22T11:36:19.810Z,3.06
2023-01-22T11:38:53.931Z,3.06
2023-01-22T11:41:20.675Z,3.07
2023-01-22T11:43:55.860Z,3.08
2023-01-22T11:46:43.051Z,3.09
2023-01-22T11:49:13.744Z,3.10
2023-01-22T11:51:59.124Z,3.11
2023-01-22T11:54:33.100Z,3.12
2023-01-22T11:56:59.886Z,3.13
2023-01-22T11:59:26.635Z,3.15
2023-01-22T12:02:02.790Z,3.15
2023-01-22T12:04:48.420Z,3.16
2023-01-22T12:07:25.380Z,3.16
2023-01-22T12:10:07.510Z,3.17
2023-01-22T12:12:41.679Z,3.17
2023-01-22T12:15:26.985Z,3.18
2023-01-22T12:18:22.906Z,3.17
2023-01-22T12:20:52.923Z,3.18
2023-01-22T12:23:22.736Z,3.18
2023-01-22T12:26:05.184Z,3.18
2023-01-22T12:28:51.697Z,3.18
2023-01-22T12:31:27.181Z,3.17
2023-01-22T12:33:56.643Z,3.18
2023-01-22T12:36:25.831Z,3.18
2023-01-22T12:39:11.691Z,3.19
2023-01-22T12:42:09.984Z,3.18
2023-01-22T12:44:46.835Z,3.19
2023-01-22T12:47:21.497Z,3.20
2023-01-22T12:49:49.274Z,3.21
2023-01-22T12:52:33.524Z,3.21
2023-01-22T12:55:05.612Z,3.22
2023-01-22T12:57:38.064Z,3.21
2023-01-22T13:00:27.665Z,3.22
2023-01-22T13:03:33.449Z,3.21
2023-01-22T13:06:04.969Z,3.21
2023-01-22T13:08:37.099Z,3.21
2023-01-22T13:11:36.932Z,3.22
2023-01-22T13:14:23.240Z,3.21
2023-01-22T13:16:59.585Z,3.21
2023-01-22T13:19:33.051Z,3.23
2023-01-22T13:28:25.786Z,3.26
2023-01-22T13:31:03.430Z,3.25
2023-01-22T13:33:30.404Z,3.27
2023-01-22T13:35:57.919Z,3.26
2023-01-22T13:38:25.882Z,3.28
2023-01-22T13:40:59.632Z,3.31
2023-01-22T13:47:28.613Z,3.32
2023-01-22T13:49:56.501Z,3.32
2023-01-22T13:52:23.314Z,3.32
2023-01-22T13:55:00.585Z,3.32
2023-01-22T13:57:27.642Z,3.33
2023-01-22T13:59:55.346Z,3.34
2023-01-22T14:02:34.847Z,3.33
2023-01-22T14:05:06.224Z,3.32
2023-01-22T14:07:35.493Z,3.33
2023-01-22T14:10:13.407Z,3.34
2023-01-22T14:12:41.429Z,3.33
2023-01-22T14:15:22.736Z,3.33
2023-01-22T14:18:03.290Z,3.33
2023-01-22T14:20:38.105Z,3.33
2023-01-22T14:23:07.762Z,3.35
2023-01-22T14:25:40.250Z,3.35
2023-01-22T14:28:07.469Z,3.35
2023-01-22T14:30:38.928Z,3.37
2023-01-22T14:33:06.117Z,3.36
2023-01-22T14:35:40.293Z,3.37
2023-01-22T14:40:57.419Z,3.37
2023-01-22T14:43:29.749Z,3.39
2023-01-22T14:46:24.903Z,3.39
2023-01-22T14:48:57.197Z,3.39
2023-01-22T14:51:28.355Z,3.38
2023-01-22T14:54:10.491Z,3.38
2023-01-22T14:59:38.334Z,3.40
2023-01-22T15:02:05.365Z,3.39
2023-01-22T15:14:00.505Z,3.40
2023-01-22T15:19:53.899Z,3.40
2023-01-22T15:22:48.188Z,3.41
2023-01-22T15:25:31.907Z,3.40
2023-01-22T15:32:29.212Z,3.41
2023-01-22T15:35:11.370Z,3.39
2023-01-22T15:37:56.144Z,3.38
